Time;durP1;ratioP1;P1;durP2;ratioP2;P2;SDS_P1;SDS_P2;PMS_P1;PMS_P2;Temp;Humidity;BMP_temperature;BMP_pressure;BME280_temperature;BME280_humidity;BME280_pressure;Samples;Min_cycle;Max_cycle;Signal;HPM_P1;HPM_P2
2023/07/13 00:01:55;;;;;;;3.58;1.60;;;19.70;85.90;;;;;;4929613;29;20254;-63
2023/07/13 00:04:23;;;;;;;3.83;1.63;;;19.60;86.00;;;;;;4927214;29;20471;-63
2023/07/13 00:06:50;;;;;;;2.75;1.75;;;19.60;86.50;;;;;;4923847;29;20076;-63
2023/07/13 00:09:17;;;;;;;1.30;1.17;;;19.50;87.50;;;;;;4923551;29;20039;-63
2023/07/13 00:11:43;;;;;;;1.88;1.48;;;19.50;86.70;;;;;;4921748;29;20064;-63
2023/07/13 00:14:10;;;;;;;2.45;1.80;;;19.40;86.80;;;;;;4929795;29;20031;-63
2023/07/13 00:16:38;;;;;;;3.55;1.70;;;19.30;87.90;;;;;;4927656;29;20684;-63
2023/07/13 00:19:04;;;;;;;1.90;1.45;;;19.30;87.70;;;;;;4927526;29;20035;-63
2023/07/13 00:21:30;;;;;;;3.72;1.40;;;19.20;88.00;;;;;;4924961;29;20027;-63
2023/07/13 00:23:57;;;;;;;2.70;1.50;;;19.20;88.50;;;;;;4924141;29;20500;-63
2023/07/13 00:26:23;;;;;;;3.65;1.65;;;19.20;88.80;;;;;;4909270;29;20042;-63
2023/07/13 00:28:48;;;;;;;3.50;1.70;;;19.20;88.90;;;;;;4921081;29;20040;-63
2023/07/13 00:31:15;;;;;;;3.05;1.48;;;19.50;89.70;;;;;;4912397;29;20095;-63
2023/07/13 00:33:41;;;;;;;3.97;1.85;;;19.60;87.50;;;;;;4927465;29;20479;-63
2023/07/13 00:36:08;;;;;;;1.45;1.35;;;19.60;87.10;;;;;;4912742;29;20831;-63
2023/07/13 00:38:34;;;;;;;3.35;1.70;;;19.60;87.30;;;;;;4924512;29;20042;-63
2023/07/13 00:41:01;;;;;;;1.58;1.27;;;19.50;87.70;;;;;;4925054;29;20028;-63
2023/07/13 00:43:28;;;;;;;3.83;1.55;;;19.40;87.70;;;;;;4922036;29;20400;-63
2023/07/13 00:45:54;;;;;;;5.80;1.75;;;19.30;88.00;;;;;;4921755;29;20108;-63
2023/07/13 00:48:23;;;;;;;2.55;1.50;;;19.20;88.80;;;;;;4926227;29;20044;-63
2023/07/13 00:50:53;;;;;;;2.00;1.52;;;19.20;89.00;;;;;;4927957;29;20060;-63
2023/07/13 00:53:20;;;;;;;2.67;1.67;;;19.30;90.10;;;;;;4910086;29;20059;-63
2023/07/13 00:55:48;;;;;;;3.00;1.63;;;19.60;89.10;;;;;;4924376;29;20040;-63
2023/07/13 00:58:16;;;;;;;1.98;1.50;;;19.70;86.80;;;;;;4911970;29;20464;-63
2023/07/13 01:00:42;;;;;;;3.42;1.90;;;19.70;85.70;;;;;;4903546;29;20474;-63
2023/07/13 01:03:08;;;;;;;3.05;1.52;;;19.60;86.60;;;;;;4912323;29;20031;-63
2023/07/13 01:05:35;;;;;;;2.90;1.80;;;19.50;86.50;;;;;;4904499;29;20083;-63
2023/07/13 01:08:02;;;;;;;3.20;1.48;;;19.30;87.20;;;;;;4928531;29;20027;-63
2023/07/13 01:10:27;;;;;;;4.07;1.90;;;19.20;88.10;;;;;;4927374;29;20042;-63
2023/07/13 01:12:54;;;;;;;3.65;2.22;;;19.10;89.10;;;;;;4926079;29;20393;-62
2023/07/13 01:15:44;;;;;;;3.33;2.00;;;19.00;89.60;;;;;;4907562;29;20046;-63
2023/07/13 01:18:18;;;;;;;3.20;1.95;;;18.90;90.10;;;;;;4923549;29;20043;-63
2023/07/13 01:21:02;;;;;;;3.40;1.90;;;18.80;90.40;;;;;;4919869;29;20028;-63
2023/07/13 01:23:29;;;;;;;2.67;1.85;;;18.70;90.70;;;;;;4908010;29;20090;-63
2023/07/13 01:25:55;;;;;;;3.75;1.80;;;18.60;91.00;;;;;;4910730;29;20034;-62
2023/07/13 01:28:23;;;;;;;3.50;1.58;;;18.60;91.30;;;;;;4911795;29;20040;-63
2023/07/13 01:30:49;;;;;;;2.78;1.73;;;18.60;91.40;;;;;;4910531;29;20127;-63
2023/07/13 01:33:18;;;;;;;2.55;1.70;;;18.60;91.50;;;;;;4924730;29;20059;-63
2023/07/13 01:35:45;;;;;;;5.55;1.73;;;18.60;91.50;;;;;;4921080;29;20823;-63
2023/07/13 01:38:13;;;;;;;1.80;1.70;;;18.50;91.60;;;;;;4924840;29;20063;-62
2023/07/13 01:40:41;;;;;;;3.45;1.95;;;18.50;91.80;;;;;;4924588;29;20915;-64
2023/07/13 01:43:07;;;;;;;2.40;1.80;;;18.50;92.00;;;;;;4906805;29;20059;-63
2023/07/13 01:45:32;;;;;;;2.80;1.70;;;18.60;92.60;;;;;;4926857;29;22249;-62
2023/07/13 01:47:58;;;;;;;2.05;1.83;;;18.80;92.30;;;;;;4925617;29;20031;-63
2023/07/13 01:50:25;;;;;;;3.33;1.65;;;18.90;91.90;;;;;;4906166;29;20040;-62
2023/07/13 01:52:53;;;;;;;2.38;1.75;;;18.90;91.60;;;;;;4921683;29;20076;-62
2023/07/13 01:55:20;;;;;;;1.70;1.60;;;18.90;91.70;;;;;;4902911;29;20047;-63
2023/07/13 01:57:46;;;;;;;2.17;1.98;;;18.80;91.70;;;;;;4901820;29;20064;-63
2023/07/13 02:00:13;;;;;;;2.80;1.80;;;18.80;92.00;;;;;;4911464;29;20048;-62
2023/07/13 02:02:43;;;;;;;5.05;1.88;;;18.80;92.10;;;;;;4925668;29;20036;-63
2023/07/13 02:05:11;;;;;;;3.20;1.80;;;18.70;92.20;;;;;;4908178;29;20023;-62
2023/07/13 02:07:37;;;;;;;2.38;1.52;;;18.70;93.00;;;;;;4908838;29;20500;-63
2023/07/13 02:10:04;;;;;;;3.83;2.15;;;18.70;92.70;;;;;;4923101;29;20087;-62
2023/07/13 02:12:29;;;;;;;2.13;1.80;;;18.80;92.70;;;;;;4906893;29;20059;-62
2023/07/13 02:14:55;;;;;;;2.78;1.83;;;18.70;92.50;;;;;;4904142;29;20032;-62
2023/07/13 02:17:21;;;;;;;2.65;1.75;;;18.70;92.70;;;;;;4924103;29;20696;-62
2023/07/13 02:19:47;;;;;;;4.22;2.20;;;18.70;92.70;;;;;;4926210;29;20027;-62
2023/07/13 02:22:14;;;;;;;5.70;2.20;;;18.70;92.90;;;;;;4925417;29;20043;-62
2023/07/13 02:24:39;;;;;;;2.47;1.95;;;18.60;93.00;;;;;;4901344;29;20031;-62
2023/07/13 02:27:05;;;;;;;1.92;1.83;;;18.60;93.10;;;;;;4906452;29;20511;-63
2023/07/13 02:29:31;;;;;;;4.30;2.20;;;18.50;93.30;;;;;;4920238;29;20764;-62
2023/07/13 02:31:57;;;;;;;2.13;1.80;;;18.60;93.70;;;;;;4920289;29;20134;-63
2023/07/13 02:34:23;;;;;;;1.95;1.80;;;18.70;93.90;;;;;;4903014;29;20591;-63
2023/07/13 02:36:49;;;;;;;4.03;2.00;;;18.70;93.40;;;;;;4915339;29;20054;-62
2023/07/13 02:39:15;;;;;;;3.95;1.67;;;18.70;93.50;;;;;;4910704;29;20119;-63
2023/07/13 02:41:41;;;;;;;3.05;1.77;;;18.70;93.60;;;;;;4901409;29;20083;-62
2023/07/13 02:44:08;;;;;;;1.60;1.50;;;18.80;93.60;;;;;;4910359;29;20051;-62
2023/07/13 02:46:36;;;;;;;3.78;1.95;;;18.80;93.50;;;;;;4900472;29;20042;-62
2023/07/13 02:49:03;;;;;;;3.08;1.90;;;18.90;93.60;;;;;;4902817;29;20036;-62
2023/07/13 02:51:29;;;;;;;4.75;2.00;;;19.00;93.20;;;;;;4920238;29;20040;-63
2023/07/13 02:53:55;;;;;;;2.33;1.80;;;19.10;92.80;;;;;;4909030;29;20039;-62
2023/07/13 02:56:27;;;;;;;3.42;1.90;;;19.10;92.80;;;;;;4908297;29;20037;-62
2023/07/13 02:58:54;;;;;;;4.43;2.10;;;19.10;92.60;;;;;;4922079;29;20032;-62
2023/07/13 03:01:21;;;;;;;2.53;1.70;;;19.10;92.30;;;;;;4923466;29;20696;-62
2023/07/13 03:03:48;;;;;;;3.88;2.60;;;19.00;92.40;;;;;;4920403;29;20108;-63
2023/07/13 03:06:15;;;;;;;5.30;1.90;;;18.90;92.60;;;;;;4903725;29;20075;-62
2023/07/13 03:08:49;;;;;;;2.72;1.85;;;18.90;92.80;;;;;;4901068;29;20370;-62
2023/07/13 03:11:18;;;;;;;4.38;2.00;;;18.80;93.10;;;;;;4909443;29;20027;-62
2023/07/13 03:13:48;;;;;;;5.20;1.98;;;18.70;93.60;;;;;;4906688;29;20117;-63
2023/07/13 03:16:15;;;;;;;3.72;2.13;;;18.70;93.70;;;;;;4906874;29;20032;-62
2023/07/13 03:18:43;;;;;;;4.47;2.10;;;18.70;93.90;;;;;;4904081;29;20044;-62
2023/07/13 03:21:11;;;;;;;2.35;1.95;;;18.80;93.70;;;;;;4904940;29;20040;-62
2023/07/13 03:23:38;;;;;;;4.03;2.20;;;18.90;93.80;;;;;;4901589;29;20409;-62
2023/07/13 03:26:18;;;;;;;4.38;2.03;;;18.90;93.70;;;;;;4910001;29;20031;-62
2023/07/13 03:28:44;;;;;;;2.80;2.10;;;18.90;93.60;;;;;;4922026;29;20118;-62
2023/07/13 03:31:24;;;;;;;2.63;2.05;;;19.00;93.50;;;;;;4909806;29;20107;-62
2023/07/13 03:33:51;;;;;;;;;;;18.90;93.50;;;;;;4908585;29;20056;-62
2023/07/13 03:36:21;;;;;;;1.80;1.70;;;18.90;93.60;;;;;;4921430;29;19914;-62
2023/07/13 03:38:54;;;;;;;1.95;1.70;;;18.90;93.60;;;;;;4918645;29;20046;-62
2023/07/13 03:41:24;;;;;;;2.00;1.70;;;18.80;93.80;;;;;;4902855;29;20428;-63
2023/07/13 03:43:52;;;;;;;2.65;1.80;;;18.90;94.10;;;;;;4900618;29;20038;-62
2023/07/13 03:46:20;;;;;;;2.38;2.10;;;19.00;94.20;;;;;;4905729;29;20063;-62
2023/07/13 03:48:47;;;;;;;1.70;1.60;;;19.00;94.30;;;;;;4924491;29;20511;-63
2023/07/13 03:51:14;;;;;;;3.65;2.10;;;19.10;94.30;;;;;;4907133;29;20644;-63
2023/07/13 03:53:42;;;;;;;3.10;1.70;;;19.20;94.20;;;;;;4907230;29;20032;-63
2023/07/13 03:56:09;;;;;;;2.35;2.00;;;19.30;93.90;;;;;;4909666;29;20032;-63
2023/07/13 03:58:38;;;;;;;2.10;1.90;;;19.30;94.00;;;;;;4903569;29;20040;-62
2023/07/13 04:01:11;;;;;;;2.08;1.73;;;19.40;93.90;;;;;;4899006;29;20035;-63
2023/07/13 04:03:39;;;;;;;4.07;2.13;;;19.40;93.60;;;;;;4913201;29;20143;-63
2023/07/13 04:06:06;;;;;;;3.28;2.33;;;19.40;93.40;;;;;;4926041;29;20760;-62
2023/07/13 04:08:35;;;;;;;3.15;2.00;;;19.40;93.50;;;;;;4906236;29;20039;-62
2023/07/13 04:11:02;;;;;;;2.83;2.30;;;19.40;93.80;;;;;;4911779;29;20031;-62
2023/07/13 04:13:28;;;;;;;3.42;2.42;;;19.40;93.90;;;;;;4900506;29;20039;-63
2023/07/13 04:15:54;;;;;;;2.38;2.10;;;19.30;93.70;;;;;;4904527;29;20046;-62
2023/07/13 04:18:20;;;;;;;3.95;2.40;;;19.30;93.80;;;;;;4918546;29;20107;-62
2023/07/13 04:20:47;;;;;;;2.30;2.10;;;19.30;93.80;;;;;;4920588;29;20031;-63
2023/07/13 04:23:13;;;;;;;3.08;2.10;;;19.30;93.70;;;;;;4925701;29;20180;-62
2023/07/13 04:25:42;;;;;;;3.03;2.00;;;19.30;94.00;;;;;;4923306;29;20054;-62
2023/07/13 04:28:08;;;;;;;2.88;2.28;;;19.30;94.00;;;;;;4923432;29;20159;-62
2023/07/13 04:30:34;;;;;;;3.70;2.30;;;19.20;94.10;;;;;;4920163;29;20854;-62
2023/07/13 04:33:00;;;;;;;4.80;2.28;;;19.30;94.40;;;;;;4920778;29;20031;-62
2023/07/13 04:35:27;;;;;;;2.42;1.95;;;19.20;94.40;;;;;;4921450;29;20043;-62
2023/07/13 04:37:53;;;;;;;2.45;2.05;;;19.20;94.30;;;;;;4921246;29;20840;-62
2023/07/13 04:40:19;;;;;;;4.30;2.47;;;19.30;94.50;;;;;;4929131;29;20036;-63
2023/07/13 04:42:46;;;;;;;3.47;2.38;;;19.30;94.50;;;;;;4926956;29;20027;-63
2023/07/13 04:45:13;;;;;;;3.55;2.42;;;19.20;95.00;;;;;;4926910;29;20047;-62
2023/07/13 04:47:40;;;;;;;4.25;2.22;;;19.20;94.70;;;;;;4923842;29;20424;-62
2023/07/13 04:50:06;;;;;;;2.55;2.28;;;19.20;94.70;;;;;;4924499;29;20519;-62
2023/07/13 04:52:32;;;;;;;2.53;2.17;;;19.20;94.90;;;;;;4923824;29;20067;-62
2023/07/13 04:54:59;;;;;;;3.75;2.30;;;19.20;95.00;;;;;;4922048;29;20051;-63
2023/07/13 04:57:26;;;;;;;3.22;2.30;;;19.20;95.50;;;;;;4929128;29;20159;-62
2023/07/13 04:59:52;;;;;;;4.40;2.22;;;19.20;95.40;;;;;;4910034;29;20043;-62
2023/07/13 05:02:18;;;;;;;4.90;2.25;;;19.20;95.60;;;;;;4926976;29;20075;-63
2023/07/13 05:04:47;;;;;;;3.25;1.98;;;19.20;95.60;;;;;;4927501;29;20051;-62
2023/07/13 05:07:13;;;;;;;2.47;2.03;;;19.30;95.50;;;;;;4924838;29;20389;-62
2023/07/13 05:09:39;;;;;;;4.80;2.28;;;19.30;95.30;;;;;;4920576;29;20047;-62
2023/07/13 05:12:08;;;;;;;5.47;2.30;;;19.40;95.30;;;;;;4924066;29;20035;-62
2023/07/13 05:14:34;;;;;;;5.82;2.30;;;19.40;95.60;;;;;;4925574;29;20036;-62
2023/07/13 05:16:59;;;;;;;3.83;2.20;;;19.40;95.60;;;;;;4927504;29;20067;-62
2023/07/13 05:19:25;;;;;;;5.63;2.60;;;19.40;95.80;;;;;;4927026;29;20114;-64
2023/07/13 05:21:51;;;;;;;2.70;2.10;;;19.40;95.80;;;;;;4924385;29;20036;-62
2023/07/13 05:24:17;;;;;;;3.53;2.13;;;19.40;96.00;;;;;;4923008;29;20039;-62
2023/07/13 05:26:42;;;;;;;4.10;2.38;;;19.50;96.00;;;;;;4921421;29;20032;-63
2023/07/13 05:29:08;;;;;;;3.13;1.98;;;19.60;96.10;;;;;;4925802;29;20110;-62
2023/07/13 05:31:34;;;;;;;4.10;1.98;;;19.80;95.80;;;;;;4921680;29;20035;-62
2023/07/13 05:34:00;;;;;;;2.30;2.10;;;20.10;95.20;;;;;;4910277;29;20111;-62
2023/07/13 05:36:26;;;;;;;2.20;1.95;;;20.30;95.10;;;;;;4923981;29;20051;-63
2023/07/13 05:38:52;;;;;;;2.13;1.92;;;20.40;95.20;;;;;;4924310;29;20036;-62
2023/07/13 05:41:17;;;;;;;2.78;1.98;;;20.40;95.30;;;;;;4921049;29;20032;-62
2023/07/13 05:43:43;;;;;;;4.35;2.00;;;20.50;95.40;;;;;;4920986;29;20039;-62
2023/07/13 05:46:09;;;;;;;2.42;1.95;;;20.60;95.10;;;;;;4921312;29;20032;-63
2023/07/13 05:48:35;;;;;;;3.67;1.75;;;20.90;94.20;;;;;;4918064;29;20060;-62
2023/07/13 05:51:01;;;;;;;2.80;1.83;;;21.10;94.00;;;;;;4928124;29;20028;-62
2023/07/13 05:53:27;;;;;;;2.45;1.85;;;21.30;92.80;;;;;;4924057;29;20039;-62
2023/07/13 05:55:55;;;;;;;4.15;1.75;;;21.40;92.90;;;;;;4924339;29;20417;-62
2023/07/13 05:58:21;;;;;;;2.33;1.40;;;21.40;92.80;;;;;;4923217;29;20031;-62
2023/07/13 06:00:48;;;;;;;4.97;1.80;;;21.40;92.60;;;;;;4921505;29;20032;-62
2023/07/13 06:03:14;;;;;;;3.17;1.80;;;21.50;92.50;;;;;;4923506;29;20090;-63
2023/07/13 06:05:41;;;;;;;2.42;1.52;;;21.60;91.90;;;;;;4918287;29;20028;-62
2023/07/13 06:08:07;;;;;;;2.20;1.50;;;21.60;91.90;;;;;;4927868;29;20515;-63
2023/07/13 06:10:34;;;;;;;3.25;1.65;;;21.70;91.50;;;;;;4926830;29;20043;-63
2023/07/13 06:13:00;;;;;;;3.00;1.65;;;21.70;91.20;;;;;;4925599;29;20463;-63
2023/07/13 06:15:26;;;;;;;4.25;1.70;;;21.70;91.00;;;;;;4923828;29;20063;-62
2023/07/13 06:17:52;;;;;;;3.80;1.70;;;21.80;91.00;;;;;;4921759;29;20111;-62
2023/07/13 06:20:17;;;;;;;4.65;1.60;;;21.90;90.30;;;;;;4921877;29;20036;-62
2023/07/13 06:22:43;;;;;;;3.72;1.95;;;21.90;90.10;;;;;;4918361;29;20032;-63
2023/07/13 06:25:09;;;;;;;3.78;1.60;;;21.90;89.80;;;;;;4924044;29;20028;-63
2023/07/13 06:27:35;;;;;;;3.38;1.80;;;21.90;90.10;;;;;;4926982;29;20040;-63
2023/07/13 06:30:01;;;;;;;6.22;1.90;;;21.90;90.00;;;;;;4925744;29;20039;-63
2023/07/13 06:32:27;;;;;;;3.22;1.60;;;21.90;90.30;;;;;;4924068;29;20074;-63
2023/07/13 06:34:53;;;;;;;2.33;1.65;;;21.90;90.20;;;;;;4922491;29;20067;-63
2023/07/13 06:37:19;;;;;;;2.65;1.65;;;22.00;90.00;;;;;;4921991;29;20403;-63
2023/07/13 06:39:44;;;;;;;3.47;1.60;;;22.00;89.00;;;;;;4919243;29;20039;-63
2023/07/13 06:42:11;;;;;;;3.13;1.48;;;22.10;88.50;;;;;;4920504;29;20480;-63
2023/07/13 06:44:36;;;;;;;2.53;1.75;;;22.10;88.10;;;;;;4926477;29;20035;-63
2023/07/13 06:47:03;;;;;;;3.60;1.65;;;22.20;88.40;;;;;;4925728;29;20067;-63
2023/07/13 06:49:28;;;;;;;4.10;1.70;;;22.20;87.70;;;;;;4925673;29;20103;-63
2023/07/13 06:51:54;;;;;;;2.65;1.42;;;22.30;87.70;;;;;;4922516;29;20036;-63
2023/07/13 06:54:20;;;;;;;3.97;1.50;;;22.40;87.60;;;;;;4921949;29;20035;-63
2023/07/13 06:56:45;;;;;;;4.53;1.45;;;22.50;86.60;;;;;;4918723;29;20067;-63
2023/07/13 06:59:11;;;;;;;3.88;1.58;;;22.50;86.50;;;;;;4919670;29;20087;-63
2023/07/13 07:01:37;;;;;;;3.83;1.40;;;22.60;85.30;;;;;;4923296;29;20035;-63
2023/07/13 07:04:03;;;;;;;4.05;1.63;;;22.70;85.10;;;;;;4926335;29;20594;-63
2023/07/13 07:06:29;;;;;;;3.80;1.77;;;22.70;84.60;;;;;;4924185;29;20027;-63
2023/07/13 07:08:55;;;;;;;4.38;1.55;;;22.80;84.60;;;;;;4922658;29;20075;-63
2023/07/13 07:11:24;;;;;;;1.55;1.30;;;22.90;83.00;;;;;;4924155;29;20034;-63
2023/07/13 07:13:51;;;;;;;3.60;1.55;;;22.90;83.80;;;;;;4920089;29;20035;-63
2023/07/13 07:16:17;;;;;;;3.08;1.52;;;23.00;83.30;;;;;;4918231;29;20127;-63
2023/07/13 07:18:43;;;;;;;5.05;1.65;;;23.10;82.70;;;;;;4924545;29;20253;-62
2023/07/13 07:21:09;;;;;;;4.30;1.65;;;23.30;83.00;;;;;;4925854;29;20038;-62
2023/07/13 07:23:35;;;;;;;5.60;1.38;;;23.50;82.30;;;;;;4923672;29;20051;-63
2023/07/13 07:26:01;;;;;;;2.92;1.23;;;23.70;81.60;;;;;;4923485;29;20024;-63
2023/07/13 07:28:28;;;;;;;1.55;1.20;;;23.80;79.50;;;;;;4921681;29;20575;-63
2023/07/13 07:30:56;;;;;;;2.38;1.20;;;23.90;80.70;;;;;;4920228;29;20036;-62
2023/07/13 07:33:22;;;;;;;3.83;1.35;;;24.00;79.60;;;;;;4918799;29;20469;-63
2023/07/13 07:35:48;;;;;;;2.42;1.23;;;24.00;78.30;;;;;;4907891;29;20039;-62
2023/07/13 07:38:14;;;;;;;3.33;1.20;;;23.90;78.90;;;;;;4925891;29;20082;-63
2023/07/13 07:40:40;;;;;;;1.35;0.90;;;23.90;78.90;;;;;;4908508;29;20123;-63
2023/07/13 07:43:11;;;;;;;1.05;0.90;;;24.00;79.00;;;;;;4923692;29;20486;-62
2023/07/13 07:45:38;;;;;;;2.10;1.00;;;24.00;78.30;;;;;;4921819;29;20042;-63
2023/07/13 07:48:05;;;;;;;2.63;1.40;;;24.00;78.70;;;;;;4920627;29;20068;-62
2023/07/13 07:50:31;;;;;;;3.60;1.08;;;24.00;77.80;;;;;;4918051;29;20123;-63
2023/07/13 07:52:57;;;;;;;2.25;1.42;;;24.10;77.60;;;;;;4922951;29;20788;-63
2023/07/13 07:55:25;;;;;;;2.33;1.20;;;24.10;78.40;;;;;;4926128;29;20043;-63
2023/07/13 07:57:51;;;;;;;2.33;1.13;;;24.10;77.60;;;;;;4924228;29;20450;-63
2023/07/13 08:00:17;;;;;;;3.50;1.13;;;24.20;77.30;;;;;;4923975;29;20042;-62
2023/07/13 08:02:44;;;;;;;2.53;1.10;;;24.20;78.10;;;;;;4920749;29;20144;-62
2023/07/13 08:05:10;;;;;;;1.77;1.13;;;24.30;76.30;;;;;;4921533;29;20040;-62
2023/07/13 08:07:39;;;;;;;2.53;1.20;;;24.30;76.00;;;;;;4917728;29;20087;-62
2023/07/13 08:10:09;;;;;;;1.77;1.10;;;24.20;76.60;;;;;;4923165;29;20067;-63
2023/07/13 08:12:39;;;;;;;4.43;2.17;;;24.20;77.90;;;;;;4927956;29;20046;-62
2023/07/13 08:15:09;;;;;;;4.85;1.40;;;24.20;77.30;;;;;;4925591;29;20114;-62
2023/07/13 08:17:34;;;;;;;5.22;2.50;;;24.30;76.90;;;;;;4926251;29;20087;-62
2023/07/13 08:20:00;;;;;;;4.45;1.80;;;24.30;77.00;;;;;;4926156;29;20035;-62
2023/07/13 08:22:27;;;;;;;2.45;1.35;;;24.30;75.10;;;;;;4924273;29;20042;-62
2023/07/13 08:24:55;;;;;;;4.35;2.25;;;24.30;74.30;;;;;;4923046;29;20064;-62
2023/07/13 08:27:25;;;;;;;6.07;1.33;;;24.30;74.30;;;;;;4921330;29;20076;-61
2023/07/13 08:29:52;;;;;;;3.35;1.55;;;24.30;73.40;;;;;;4928394;29;20039;-62
2023/07/13 08:32:19;;;;;;;4.18;2.83;;;24.30;74.30;;;;;;4928714;29;20114;-62
2023/07/13 08:34:45;;;;;;;2.50;1.40;;;24.30;75.20;;;;;;4926898;29;20047;-62
2023/07/13 08:37:11;;;;;;;4.88;2.08;;;24.40;74.50;;;;;;4926677;29;20043;-62
2023/07/13 08:39:37;;;;;;;4.15;1.70;;;24.50;74.70;;;;;;4923153;29;20031;-62
2023/07/13 08:42:13;;;;;;;4.13;1.70;;;24.70;74.50;;;;;;4909469;29;20031;-62
2023/07/13 08:44:48;;;;;;;3.05;1.52;;;24.80;74.10;;;;;;4919932;29;20048;-62
2023/07/13 08:47:17;;;;;;;5.20;2.88;;;24.90;73.90;;;;;;4913620;29;20048;-62
2023/07/13 08:49:44;;;;;;;5.65;2.63;;;24.90;73.00;;;;;;4927434;29;20036;-62
2023/07/13 08:52:27;;;;;;;5.28;1.60;;;24.90;73.70;;;;;;4927129;29;20031;-62
2023/07/13 08:54:55;;;;;;;4.22;1.92;;;25.00;73.00;;;;;;4926125;29;20036;-62
2023/07/13 08:57:30;;;;;;;5.60;2.10;;;25.00;73.40;;;;;;4926527;29;20035;-63
2023/07/13 08:59:55;;;;;;;4.32;2.03;;;25.10;71.60;;;;;;4923095;29;20056;-63
2023/07/13 09:02:28;;;;;;;3.72;2.00;;;25.00;70.60;;;;;;4903508;29;20122;-63
2023/07/13 09:05:04;;;;;;;4.35;2.00;;;25.00;69.70;;;;;;4924477;29;20090;-63
2023/07/13 09:07:59;;;;;;;4.65;1.40;;;24.80;67.70;;;;;;4925156;29;20404;-62
2023/07/13 09:10:46;;;;;;;4.95;0.85;;;24.50;66.50;;;;;;4924345;29;20485;-62
2023/07/13 09:14:05;;;;;;;4.45;1.60;;;24.60;65.10;;;;;;4924557;29;20478;-63
2023/07/13 09:16:33;;;;;;;4.82;1.50;;;24.60;68.40;;;;;;4879653;29;20040;-62
2023/07/13 09:19:06;;;;;;;6.57;1.60;;;24.70;65.60;;;;;;4879710;29;20119;-62
2023/07/13 09:21:36;;;;;;;5.65;2.40;;;24.70;66.50;;;;;;4900649;29;20040;-63
2023/07/13 09:24:19;;;;;;;7.25;3.30;;;24.80;65.80;;;;;;4927550;29;20069;-62
2023/07/13 09:26:45;;;;;;;3.38;1.60;;;24.90;65.90;;;;;;4902623;29;20043;-63
2023/07/13 09:29:19;;;;;;;4.20;2.00;;;25.00;64.00;;;;;;4926051;29;20043;-63
2023/07/13 09:31:52;;;;;;;2.90;1.60;;;25.10;65.40;;;;;;4924404;29;20050;-63
2023/07/13 09:34:18;;;;;;;4.50;1.77;;;25.30;63.80;;;;;;4924449;29;20040;-63
2023/07/13 09:36:44;;;;;;;3.75;1.80;;;25.30;62.90;;;;;;4919925;29;20108;-62
2023/07/13 09:39:21;;;;;;;5.45;1.88;;;25.30;61.80;;;;;;4922010;29;20666;-62
2023/07/13 09:41:53;;;;;;;2.38;1.63;;;25.30;64.30;;;;;;4927191;29;20039;-63
2023/07/13 09:44:33;;;;;;;5.15;1.95;;;25.30;65.60;;;;;;4926849;29;20044;-63
2023/07/13 09:46:59;;;;;;;4.90;1.90;;;25.10;62.50;;;;;;4924750;29;20043;-63
2023/07/13 09:49:36;;;;;;;4.55;2.35;;;25.00;64.70;;;;;;4906762;29;20034;-63
2023/07/13 09:52:05;;;;;;;5.38;1.77;;;24.90;66.10;;;;;;4922894;29;20564;-63
2023/07/13 09:54:34;;;;;;;4.18;2.22;;;24.80;65.00;;;;;;4919467;29;20040;-67
2023/07/13 09:57:02;;;;;;;7.97;2.42;;;24.80;65.70;;;;;;4921064;29;20039;-63
2023/07/13 09:59:36;;;;;;;5.07;2.00;;;25.00;64.90;;;;;;4928078;29;20499;-63
2023/07/13 10:02:02;;;;;;;5.85;2.00;;;25.10;65.30;;;;;;4927446;29;20409;-62
2023/07/13 10:04:34;;;;;;;4.20;2.28;;;25.20;63.20;;;;;;4925328;29;20110;-63
2023/07/13 10:07:09;;;;;;;3.70;1.90;;;25.30;62.60;;;;;;4924368;29;20179;-63
2023/07/13 10:09:35;;;;;;;3.10;2.25;;;25.30;63.60;;;;;;4920692;29;20150;-62
2023/07/13 10:12:01;;;;;;;6.70;2.10;;;25.30;63.20;;;;;;4922231;29;20035;-63
2023/07/13 10:14:28;;;;;;;3.80;2.17;;;25.40;62.00;;;;;;4906792;29;20043;-63
2023/07/13 10:17:02;;;;;;;4.82;2.13;;;25.40;63.80;;;;;;4926485;29;20044;-63
2023/07/13 10:19:35;;;;;;;2.65;2.00;;;25.30;61.60;;;;;;4923873;29;20043;-63
2023/07/13 10:22:22;;;;;;;3.88;1.95;;;25.30;61.90;;;;;;4924924;29;20111;-63
2023/07/13 10:24:50;;;;;;;3.40;1.95;;;25.30;62.40;;;;;;4918911;29;20072;-63
2023/07/13 10:27:19;;;;;;;4.32;2.13;;;25.30;62.60;;;;;;4921626;29;20043;-63
2023/07/13 10:29:48;;;;;;;5.60;2.10;;;25.10;62.80;;;;;;4919499;29;20032;-64
2023/07/13 10:32:14;;;;;;;3.15;1.80;;;25.10;64.30;;;;;;4919721;29;20039;-63
2023/07/13 10:34:47;;;;;;;5.30;2.40;;;25.20;64.20;;;;;;4926734;29;20847;-63
2023/07/13 10:37:22;;;;;;;3.78;2.28;;;25.40;61.60;;;;;;4925836;29;20456;-63
2023/07/13 10:39:52;;;;;;;3.00;2.20;;;25.50;61.90;;;;;;4923417;29;20043;-63
2023/07/13 10:42:30;;;;;;;7.60;2.10;;;25.50;62.10;;;;;;4923495;29;20028;-63
2023/07/13 10:44:56;;;;;;;6.03;1.75;;;25.60;60.30;;;;;;4922222;29;20037;-63
2023/07/13 10:47:23;;;;;;;2.83;1.90;;;25.70;60.80;;;;;;4919732;29;20054;-63
2023/07/13 10:49:55;;;;;;;6.00;2.08;;;25.80;61.20;;;;;;4919228;29;20043;-63
2023/07/13 10:52:40;;;;;;;3.08;2.20;;;25.90;59.90;;;;;;4925422;29;20047;-63
2023/07/13 10:55:26;;;;;;;6.15;1.70;;;25.90;60.60;;;;;;4909795;29;20031;-64
2023/07/13 10:57:51;;;;;;;;;;;25.90;60.10;;;;;;4924495;29;20044;-64
2023/07/13 11:00:18;;;;;;;3.67;1.83;;;26.00;60.40;;;;;;4925308;29;19966;-64
2023/07/13 11:02:57;;;;;;;3.35;1.98;;;26.20;60.00;;;;;;4918971;29;20040;-63
2023/07/13 11:05:32;;;;;;;5.95;2.10;;;26.40;59.60;;;;;;4920328;29;20027;-64
2023/07/13 11:08:20;;;;;;;4.75;1.83;;;26.50;59.90;;;;;;4919443;29;20489;-64
2023/07/13 11:10:55;;;;;;;3.33;1.75;;;26.80;60.70;;;;;;4922789;29;20039;-63
2023/07/13 11:13:49;;;;;;;4.47;1.70;;;26.90;57.70;;;;;;4924009;29;20046;-64
2023/07/13 11:16:18;;;;;;;3.47;1.70;;;26.90;56.00;;;;;;4897251;29;20071;-64
2023/07/13 11:19:25;;;;;;;4.35;2.00;;;26.80;57.10;;;;;;4920429;29;20044;-64
2023/07/13 11:22:16;;;;;;;4.95;1.45;;;26.80;56.00;;;;;;4918303;29;20028;-63
2023/07/13 11:24:57;;;;;;;3.83;1.50;;;26.70;55.90;;;;;;4909607;29;20052;-64
2023/07/13 11:27:26;;;;;;;1.67;0.90;;;26.60;55.40;;;;;;4923070;29;20106;-63
2023/07/13 11:30:06;;;;;;;4.72;1.55;;;26.70;57.00;;;;;;4924951;29;20048;-63
2023/07/13 11:32:32;;;;;;;6.70;1.75;;;26.80;55.90;;;;;;4921622;29;20051;-63
2023/07/13 11:34:58;;;;;;;3.75;1.80;;;26.80;56.30;;;;;;4922252;29;20032;-63
2023/07/13 11:37:26;;;;;;;2.88;1.27;;;26.90;55.80;;;;;;4922438;29;20078;-63
2023/07/13 11:39:52;;;;;;;3.08;1.30;;;26.80;53.10;;;;;;4919095;29;20043;-63
2023/07/13 11:42:20;;;;;;;2.42;1.27;;;26.80;54.80;;;;;;4917947;29;20032;-64
2023/07/13 11:44:49;;;;;;;4.35;1.50;;;26.80;53.80;;;;;;4919542;29;20035;-63
2023/07/13 11:47:22;;;;;;;4.05;1.55;;;26.90;56.80;;;;;;4925477;29;20040;-63
2023/07/13 11:49:50;;;;;;;4.80;1.70;;;27.00;55.30;;;;;;4923116;29;20141;-63
2023/07/13 11:52:26;;;;;;;3.47;1.42;;;27.00;55.00;;;;;;4922775;29;20453;-63
2023/07/13 11:54:55;;;;;;;7.18;1.63;;;27.10;55.30;;;;;;4920190;29;20457;-67
2023/07/13 11:57:33;;;;;;;5.35;1.48;;;27.20;54.50;;;;;;4919762;29;20047;-63
2023/07/13 12:00:05;;;;;;;3.90;1.48;;;27.10;54.70;;;;;;4919726;29;20051;-64
2023/07/13 12:02:42;;;;;;;1.88;1.00;;;27.20;55.20;;;;;;4922542;29;20039;-64
2023/07/13 12:05:12;;;;;;;4.53;1.40;;;27.10;53.90;;;;;;4920089;29;20033;-63
2023/07/13 12:07:39;;;;;;;4.22;1.63;;;27.10;54.90;;;;;;4923108;29;20032;-64
2023/07/13 12:10:28;;;;;;;1.58;1.05;;;27.10;55.00;;;;;;4923246;29;20111;-64
2023/07/13 12:13:00;;;;;;;1.85;1.00;;;27.20;53.70;;;;;;4920712;29;20032;-63
2023/07/13 12:15:37;;;;;;;8.05;1.30;;;27.20;53.40;;;;;;4918087;29;20139;-63
2023/07/13 12:18:11;;;;;;;2.45;1.30;;;27.20;51.70;;;;;;4926015;29;20141;-63
2023/07/13 12:20:38;;;;;;;6.88;1.50;;;27.20;53.30;;;;;;4924307;29;20066;-63
2023/07/13 12:23:27;;;;;;;5.22;1.75;;;27.10;54.30;;;;;;4925411;29;20043;-63
2023/07/13 12:25:54;;;;;;;2.75;1.25;;;27.10;53.30;;;;;;4923507;29;20044;-64
2023/07/13 12:28:52;;;;;;;4.00;1.25;;;27.10;53.90;;;;;;4918332;29;20448;-63
2023/07/13 12:31:33;;;;;;;2.95;1.40;;;27.00;53.90;;;;;;4916264;29;20075;-63
2023/07/13 12:34:07;;;;;;;1.30;1.00;;;26.90;53.30;;;;;;4919493;29;20040;-64
2023/07/13 12:36:38;;;;;;;7.75;1.70;;;26.70;54.50;;;;;;4915708;29;20081;-64
2023/07/13 12:39:18;;;;;;;3.75;1.33;;;26.70;55.10;;;;;;4925196;29;20473;-64
2023/07/13 12:41:45;;;;;;;3.90;1.23;;;26.60;55.00;;;;;;4905826;29;20063;-63
2023/07/13 12:44:28;;;;;;;3.20;1.30;;;26.50;54.00;;;;;;4923671;29;20039;-63
2023/07/13 12:47:04;;;;;;;2.88;1.20;;;26.50;55.50;;;;;;4920662;29;20048;-63
2023/07/13 12:49:34;;;;;;;3.60;1.08;;;26.60;55.50;;;;;;4903989;29;20047;-63
2023/07/13 12:52:03;;;;;;;2.70;1.08;;;26.70;56.00;;;;;;4919588;29;20061;-63
2023/07/13 12:54:30;;;;;;;5.78;1.20;;;26.70;55.70;;;;;;4916873;29;20127;-63
2023/07/13 12:56:58;;;;;;;7.95;1.13;;;26.70;55.60;;;;;;4928154;29;20040;-63
2023/07/13 12:59:28;;;;;;;4.20;1.20;;;26.70;54.70;;;;;;4927422;29;20032;-63